createdAt,value
2022-10-22T00:02:22.229Z,97076.13
2022-10-22T00:04:50.405Z,97059.72
2022-10-22T00:07:18.714Z,97068.69
2022-10-22T00:09:45.499Z,97050.63
2022-10-22T00:12:12.752Z,97058.03
2022-10-22T00:14:39.507Z,97041.81
2022-10-22T00:17:10.500Z,97029.38
2022-10-22T00:19:37.265Z,97040.53
2022-10-22T00:22:05.920Z,97039.63
2022-10-22T00:24:34.190Z,97025.75
2022-10-22T00:27:01.556Z,97019.16
2022-10-22T00:29:28.607Z,97030.78
2022-10-22T00:34:22.631Z,97024.50
2022-10-22T00:36:50.250Z,97041.81
2022-10-22T00:39:19.228Z,97026.53
2022-10-22T00:41:47.387Z,97018.34
2022-10-22T00:44:51.636Z,97030.50
2022-10-22T00:47:20.135Z,97041.19
2022-10-22T00:49:47.797Z,97028.91
2022-10-22T00:52:14.596Z,97035.03
2022-10-22T00:54:42.622Z,97027.34
2022-10-22T00:57:09.861Z,97021.81
2022-10-22T00:59:37.812Z,97018.19
2022-10-22T01:02:04.954Z,97017.06
2022-10-22T01:04:31.676Z,97020.72
2022-10-22T01:06:59.004Z,97033.63
2022-10-22T01:09:49.619Z,97027.94
2022-10-22T01:12:28.653Z,97018.81
2022-10-22T01:15:22.555Z,97023.22
2022-10-22T01:18:06.934Z,97007.13
2022-10-22T01:20:53.198Z,96994.50
2022-10-22T01:24:04.729Z,96999.56
2022-10-22T01:27:09.335Z,96988.81
2022-10-22T01:29:53.496Z,96984.59
2022-10-22T01:32:23.985Z,96976.03
2022-10-22T01:34:56.325Z,96976.81
2022-10-22T01:37:27.528Z,96974.31
2022-10-22T01:39:55.870Z,96955.66
2022-10-22T01:42:23.693Z,96946.78
2022-10-22T01:44:50.507Z,96953.00
2022-10-22T01:47:40.802Z,96955.38
2022-10-22T01:50:28.304Z,96955.53
2022-10-22T01:53:07.355Z,96978.44
2022-10-22T01:55:43.076Z,96960.31
2022-10-22T01:58:39.051Z,96958.22
2022-10-22T02:01:23.527Z,96965.34
2022-10-22T02:04:22.617Z,96961.09
2022-10-22T02:06:53.459Z,96954.78
2022-10-22T02:09:22.641Z,96957.94
2022-10-22T02:11:50.580Z,96950.50
2022-10-22T02:14:18.828Z,96944.00
2022-10-22T02:16:47.876Z,96955.84
2022-10-22T02:19:33.552Z,96963.56
2022-10-22T02:22:00.487Z,96953.16
2022-10-22T02:24:27.568Z,96947.34
2022-10-22T02:27:12.667Z,96932.91
2022-10-22T02:29:50.047Z,96934.50
2022-10-22T02:32:21.129Z,96938.91
2022-10-22T02:34:50.061Z,96925.81
2022-10-22T02:37:18.646Z,96930.72
2022-10-22T02:39:45.836Z,96939.94
2022-10-22T02:42:12.932Z,96942.91
2022-10-22T02:44:39.818Z,96925.19
2022-10-22T02:47:06.412Z,96928.06
2022-10-22T02:49:33.187Z,96921.94
2022-10-22T02:51:59.849Z,96917.78
2022-10-22T02:54:26.519Z,96909.56
2022-10-22T02:56:53.351Z,96912.69
2022-10-22T02:59:19.987Z,96902.22
2022-10-22T03:01:46.759Z,96905.84
2022-10-22T03:04:13.431Z,96916.63
2022-10-22T03:06:43.809Z,96923.44
2022-10-22T03:09:11.378Z,96912.97
2022-10-22T03:11:38.113Z,96922.78
2022-10-22T03:14:04.841Z,96923.44
2022-10-22T03:16:31.637Z,96912.78
2022-10-22T03:18:58.274Z,96909.16
2022-10-22T03:21:45.800Z,96909.00
2022-10-22T03:24:17.445Z,96902.81
2022-10-22T03:26:46.047Z,96889.47
2022-10-22T03:29:14.369Z,96889.59
2022-10-22T03:31:41.111Z,96893.53
2022-10-22T03:34:07.781Z,96896.69
2022-10-22T03:36:35.024Z,96892.88
2022-10-22T03:39:02.304Z,96900.47
2022-10-22T03:41:29.344Z,96897.59
2022-10-22T03:43:56.236Z,96910.53
2022-10-22T03:46:23.048Z,96906.75
2022-10-22T03:48:49.684Z,96901.66
2022-10-22T03:51:16.227Z,96896.75
2022-10-22T03:53:42.995Z,96911.31
2022-10-22T03:56:11.160Z,96908.13
2022-10-22T03:58:39.649Z,96906.56
2022-10-22T04:01:08.333Z,96915.00
2022-10-22T04:03:35.533Z,96918.47
2022-10-22T04:06:10.432Z,96912.56
2022-10-22T04:08:40.067Z,96903.63
2022-10-22T04:11:07.560Z,96895.91
2022-10-22T04:13:34.944Z,96887.13
2022-10-22T04:16:16.492Z,96887.78
2022-10-22T04:18:44.388Z,96886.00
2022-10-22T04:21:13.222Z,96873.91
2022-10-22T04:23:44.049Z,96877.13
2022-10-22T04:26:10.784Z,96878.09
2022-10-22T04:28:37.427Z,96873.75
2022-10-22T04:31:15.762Z,96864.41
2022-10-22T04:33:43.020Z,96867.75
2022-10-22T04:36:14.981Z,96863.63
2022-10-22T04:38:43.382Z,96851.00
2022-10-22T04:41:11.068Z,96844.34
2022-10-22T04:43:38.007Z,96837.19
2022-10-22T04:46:05.161Z,96829.50
2022-10-22T04:48:31.705Z,96828.84
2022-10-22T04:50:59.547Z,96830.06
2022-10-22T04:53:26.307Z,96820.78
2022-10-22T04:55:53.061Z,96816.44
2022-10-22T04:58:19.988Z,96825.41
2022-10-22T05:00:46.643Z,96822.72
2022-10-22T05:03:13.212Z,96824.28
2022-10-22T05:05:39.800Z,96811.06
2022-10-22T05:08:06.404Z,96812.44
2022-10-22T05:10:32.979Z,96809.09
2022-10-22T05:12:59.635Z,96804.72
2022-10-22T05:15:26.187Z,96799.91
2022-10-22T05:17:53.428Z,96805.03
2022-10-22T05:20:20.144Z,96808.75
2022-10-22T05:22:46.718Z,96807.41
2022-10-22T05:25:13.332Z,96805.28
2022-10-22T05:27:40.191Z,96798.56
2022-10-22T05:30:07.429Z,96796.66
2022-10-22T05:32:35.564Z,96800.34
2022-10-22T05:35:02.208Z,96804.38
2022-10-22T05:37:28.816Z,96811.53
2022-10-22T05:40:06.572Z,96811.31
2022-10-22T05:42:42.277Z,96804.16
2022-10-22T05:45:09.568Z,96795.41
2022-10-22T05:47:36.183Z,96793.63
2022-10-22T05:50:03.192Z,96794.66
2022-10-22T05:52:29.745Z,96798.56
2022-10-22T05:54:56.484Z,96806.72
2022-10-22T05:57:23.051Z,96800.91
2022-10-22T05:59:49.692Z,96788.91
2022-10-22T06:02:16.405Z,96789.03
2022-10-22T06:04:43.192Z,96789.16
2022-10-22T06:07:14.782Z,96784.56
2022-10-22T06:09:41.655Z,96777.84
2022-10-22T06:12:10.983Z,96775.94
2022-10-22T06:14:37.724Z,96785.22
2022-10-22T06:17:04.383Z,96782.31
2022-10-22T06:19:31.440Z,96776.50
2022-10-22T06:21:58.156Z,96783.31
2022-10-22T06:24:24.840Z,96791.16
2022-10-22T06:26:52.643Z,96782.66
2022-10-22T06:29:19.410Z,96773.22
2022-10-22T06:31:48.236Z,96775.81
2022-10-22T06:34:15.498Z,96785.09
2022-10-22T06:36:44.700Z,96796.44
2022-10-22T06:39:13.949Z,96798.78
2022-10-22T06:41:41.045Z,96785.09
2022-10-22T06:44:07.799Z,96780.63
2022-10-22T06:46:38.099Z,96780.72
2022-10-22T06:49:07.852Z,96790.00
2022-10-22T06:51:36.415Z,96785.91
2022-10-22T06:54:03.773Z,96801.50
2022-10-22T06:56:33.573Z,96802.72
2022-10-22T06:59:00.323Z,96796.44
2022-10-22T07:01:31.250Z,96788.91
2022-10-22T07:03:58.281Z,96784.88
2022-10-22T07:06:26.638Z,96787.00
2022-10-22T07:08:54.714Z,96784.41
2022-10-22T07:11:27.415Z,96795.84
2022-10-22T07:13:56.140Z,96789.78
2022-10-22T07:16:25.656Z,96783.94
2022-10-22T07:18:54.557Z,96785.94
2022-10-22T07:21:22.108Z,96786.84
2022-10-22T07:23:48.792Z,96790.09
2022-10-22T07:26:17.479Z,96794.69
2022-10-22T07:28:44.395Z,96799.16
2022-10-22T07:31:12.956Z,96797.03
2022-10-22T07:33:40.331Z,96791.03
2022-10-22T07:36:10.368Z,96790.38
2022-10-22T07:38:37.164Z,96789.69
2022-10-22T07:41:04.516Z,96787.56
2022-10-22T07:43:31.211Z,96795.06
2022-10-22T07:45:58.072Z,96805.63
2022-10-22T07:48:24.847Z,96804.94
2022-10-22T07:50:52.132Z,96817.28
2022-10-22T07:53:18.952Z,96827.19
2022-10-22T07:55:49.625Z,96820.03
2022-10-22T07:58:17.587Z,96815.28
2022-10-22T08:00:44.387Z,96816.16
2022-10-22T08:03:12.296Z,96823.78
2022-10-22T08:05:39.471Z,96827.38
2022-10-22T08:08:06.772Z,96822.22
2022-10-22T08:10:34.082Z,96829.06
2022-10-22T08:13:01.113Z,96821.44
2022-10-22T08:15:28.157Z,96820.50
2022-10-22T08:17:54.843Z,96813.88
2022-10-22T08:20:21.960Z,96811.63
2022-10-22T08:22:48.719Z,96808.81
2022-10-22T08:25:15.808Z,96797.16
2022-10-22T08:27:42.924Z,96793.91
2022-10-22T08:30:10.720Z,96788.72
2022-10-22T08:32:37.424Z,96785.09
2022-10-22T08:35:04.698Z,96783.97
2022-10-22T08:37:31.316Z,96785.28
2022-10-22T08:39:58.015Z,96783.03
2022-10-22T08:42:36.555Z,96791.56
2022-10-22T08:45:23.037Z,96792.91
2022-10-22T08:48:10.180Z,96788.31
2022-10-22T08:50:46.501Z,96783.03
2022-10-22T08:53:43.983Z,96781.72
2022-10-22T08:56:11.514Z,96779.13
2022-10-22T08:58:49.637Z,96781.66
2022-10-22T09:01:39.679Z,96780.97
2022-10-22T09:04:26.623Z,96773.75
2022-10-22T09:06:55.860Z,96773.94
2022-10-22T09:09:27.266Z,96775.50
2022-10-22T09:11:56.900Z,96771.44
2022-10-22T09:14:25.908Z,96760.81
2022-10-22T09:17:21.379Z,96759.44
2022-10-22T09:19:50.933Z,96759.34
2022-10-22T09:22:23.677Z,96758.06
2022-10-22T09:25:00.092Z,96750.84
2022-10-22T09:27:29.843Z,96743.53
2022-10-22T09:29:56.742Z,96740.47
2022-10-22T09:32:23.507Z,96738.41
2022-10-22T09:34:50.620Z,96738.06
2022-10-22T09:37:19.772Z,96744.22
2022-10-22T09:39:50.996Z,96737.84
2022-10-22T09:42:21.591Z,96729.50
2022-10-22T09:44:57.704Z,96733.41
2022-10-22T09:48:00.482Z,96747.94
2022-10-22T09:50:45.969Z,96758.03
2022-10-22T09:53:31.708Z,96756.28
2022-10-22T09:56:02.089Z,96754.03
2022-10-22T09:58:28.904Z,96746.47
2022-10-22T10:01:00.824Z,96745.69
2022-10-22T10:03:31.774Z,96745.69
2022-10-22T10:06:05.033Z,96734.38
2022-10-22T10:08:35.227Z,96731.34
2022-10-22T10:11:56.743Z,96728.97
2022-10-22T10:14:52.935Z,96722.25
2022-10-22T10:17:29.146Z,96729.91
2022-10-22T10:20:26.143Z,96722.25
2022-10-22T10:23:15.096Z,96717.88
2022-10-22T10:25:53.641Z,96719.97
2022-10-22T10:28:35.354Z,96723.91
2022-10-22T10:31:10.998Z,96710.97
2022-10-22T10:33:49.793Z,96711.84
2022-10-22T10:36:36.724Z,96709.84
2022-10-22T10:39:21.325Z,96697.41
2022-10-22T10:42:14.396Z,96705.06
2022-10-22T10:44:55.652Z,96695.41
2022-10-22T10:47:49.909Z,96686.81
2022-10-22T10:50:28.762Z,96695.13
2022-10-22T10:53:07.216Z,96683.25
2022-10-22T10:55:57.004Z,96685.38
2022-10-22T10:58:35.768Z,96679.91
2022-10-22T11:01:15.940Z,96681.56
2022-10-22T11:03:48.641Z,96673.97
2022-10-22T11:06:21.646Z,96681.91
2022-10-22T11:09:13.522Z,96668.13
2022-10-22T11:11:50.148Z,96667.41
2022-10-22T11:14:48.884Z,96668.41
2022-10-22T11:17:18.283Z,96654.75
2022-10-22T11:20:14.552Z,96653.88
2022-10-22T11:23:22.158Z,96654.97
2022-10-22T11:25:50.648Z,96643.94
2022-10-22T11:28:40.163Z,96632.69
2022-10-22T11:31:28.180Z,96631.66
2022-10-22T11:34:09.890Z,96623.84
2022-10-22T11:36:49.107Z,96596.44
2022-10-22T11:39:31.427Z,96600.16
2022-10-22T11:41:59.480Z,96594.63
2022-10-22T11:44:30.287Z,96567.03
2022-10-22T11:47:08.893Z,96559.59
2022-10-22T11:49:57.319Z,96561.69
2022-10-22T11:52:32.851Z,96548.66
2022-10-22T11:55:03.329Z,96527.31
2022-10-22T11:57:38.474Z,96547.94
2022-10-22T12:00:35.722Z,96540.19
2022-10-22T12:03:24.273Z,96523.91
2022-10-22T12:06:19.924Z,96541.34
2022-10-22T12:08:57.448Z,96535.56
2022-10-22T12:11:28.868Z,96512.00
2022-10-22T12:14:00.596Z,96524.97
2022-10-22T12:16:55.311Z,96533.78
2022-10-22T12:19:22.618Z,96528.31
2022-10-22T12:22:13.496Z,96545.09
2022-10-22T12:24:49.576Z,96541.81
2022-10-22T12:27:25.946Z,96531.34
2022-10-22T12:29:58.736Z,96549.72
2022-10-22T12:32:37.025Z,96549.50
2022-10-22T12:35:11.840Z,96527.38
2022-10-22T12:37:38.948Z,96520.41
2022-10-22T12:40:22.957Z,96519.50
2022-10-22T12:42:53.900Z,96504.31
2022-10-22T12:45:21.193Z,96518.56
2022-10-22T12:47:54.700Z,96520.28
2022-10-22T12:50:25.600Z,96515.72
2022-10-22T12:52:54.592Z,96500.56
2022-10-22T12:55:26.074Z,96514.22
2022-10-22T12:57:53.248Z,96501.88
2022-10-22T13:00:23.703Z,96491.72
2022-10-22T13:02:50.892Z,96501.19
2022-10-22T13:05:17.536Z,96495.69
2022-10-22T13:07:49.665Z,96484.03
2022-10-22T13:10:40.573Z,96457.97
2022-10-22T13:13:09.077Z,96439.75
2022-10-22T13:15:41.271Z,96441.94
2022-10-22T13:18:24.063Z,96441.88
2022-10-22T13:21:03.305Z,96431.94
2022-10-22T13:23:33.670Z,96420.56
2022-10-22T13:26:15.100Z,96424.31
2022-10-22T13:28:44.759Z,96423.53
2022-10-22T13:31:20.309Z,96424.69
2022-10-22T13:33:55.890Z,96410.66
2022-10-22T13:36:23.864Z,96435.25
2022-10-22T13:38:52.693Z,96435.97
2022-10-22T13:41:22.532Z,96428.28
2022-10-22T13:43:50.071Z,96416.16
2022-10-22T13:46:17.484Z,96428.38
2022-10-22T13:48:46.566Z,96429.84
2022-10-22T13:51:16.783Z,96424.09
2022-10-22T13:53:45.764Z,96413.13
2022-10-22T13:56:18.604Z,96429.16
2022-10-22T13:58:47.144Z,96427.97
2022-10-22T14:01:27.817Z,96408.41
2022-10-22T14:03:58.225Z,96400.00
2022-10-22T14:06:28.900Z,96434.56
2022-10-22T14:08:58.852Z,96433.03
2022-10-22T14:11:32.868Z,96452.34
2022-10-22T14:13:59.657Z,96455.56
2022-10-22T14:16:28.677Z,96483.06
2022-10-22T14:18:55.973Z,96489.13
2022-10-22T14:21:22.980Z,96483.84
2022-10-22T14:23:51.648Z,96490.81
2022-10-22T14:26:25.421Z,96504.53
2022-10-22T14:34:07.108Z,96495.16
2022-10-22T14:36:34.275Z,96497.25
2022-10-22T14:39:00.884Z,96480.91
2022-10-22T14:41:29.096Z,96458.81
2022-10-22T14:43:56.507Z,96472.50
2022-10-22T14:46:23.181Z,96467.19
2022-10-22T14:48:49.997Z,96447.44
2022-10-22T14:51:19.492Z,96429.91
2022-10-22T14:53:47.034Z,96428.31
2022-10-22T14:56:16.661Z,96439.44
2022-10-22T14:58:43.654Z,96436.94
2022-10-22T15:01:10.313Z,96420.97
2022-10-22T15:03:39.472Z,96439.13
2022-10-22T15:06:08.613Z,96449.09
2022-10-22T15:08:37.488Z,96447.00
2022-10-22T15:11:07.195Z,96423.78
2022-10-22T15:13:34.379Z,96440.63
2022-10-22T15:16:01.353Z,96444.50
2022-10-22T15:18:28.823Z,96430.78
2022-10-22T15:20:57.230Z,96405.72
2022-10-22T15:23:24.020Z,96421.38
2022-10-22T15:25:50.628Z,96429.38
2022-10-22T15:28:17.213Z,96425.28
2022-10-22T15:30:43.803Z,96410.03
2022-10-22T15:33:11.036Z,96406.84
2022-10-22T15:35:37.797Z,96415.69
2022-10-22T15:38:07.115Z,96407.97
2022-10-22T15:40:33.724Z,96403.00
2022-10-22T15:43:00.502Z,96409.06
2022-10-22T15:45:27.172Z,96400.75
2022-10-22T15:47:53.807Z,96395.41
2022-10-22T15:50:20.424Z,96369.31
2022-10-22T15:52:47.096Z,96343.09
2022-10-22T15:55:14.801Z,96329.22
2022-10-22T15:57:42.671Z,96345.22
2022-10-22T16:00:10.731Z,96345.19
2022-10-22T16:02:37.621Z,96338.75
2022-10-22T16:05:04.532Z,96347.50
2022-10-22T16:07:31.224Z,96338.75
2022-10-22T16:09:58.880Z,96334.00
2022-10-22T16:12:25.675Z,96321.22
2022-10-22T16:14:52.631Z,96339.03
2022-10-22T16:17:19.259Z,96353.19
2022-10-22T16:19:47.347Z,96338.09
2022-10-22T16:22:15.753Z,96341.50
2022-10-22T16:24:42.416Z,96342.34
2022-10-22T16:27:09.828Z,96341.94
2022-10-22T16:29:40.229Z,96334.03
2022-10-22T16:32:07.630Z,96335.69
2022-10-22T16:34:34.362Z,96333.91
2022-10-22T16:37:01.091Z,96328.47
2022-10-22T16:39:28.375Z,96329.66
2022-10-22T16:41:55.000Z,96346.50
2022-10-22T16:44:21.704Z,96343.75
2022-10-22T16:46:48.373Z,96344.66
2022-10-22T16:49:15.023Z,96374.31
2022-10-22T16:51:41.736Z,96369.84
2022-10-22T16:54:11.442Z,96343.16
2022-10-22T16:56:39.831Z,96373.00
2022-10-22T16:59:09.161Z,96364.97
2022-10-22T17:01:40.303Z,96358.81
2022-10-22T17:04:08.099Z,96355.34
2022-10-22T17:06:34.801Z,96356.84
2022-10-22T17:09:01.733Z,96345.97
2022-10-22T17:11:38.142Z,96347.53
2022-10-22T17:14:07.164Z,96349.47
2022-10-22T17:16:33.742Z,96347.59
2022-10-22T17:19:03.299Z,96346.47
2022-10-22T17:21:29.851Z,96346.59
2022-10-22T17:23:57.441Z,96350.72
2022-10-22T17:26:26.505Z,96350.38
2022-10-22T17:28:53.643Z,96342.44
2022-10-22T17:31:32.732Z,96355.84
2022-10-22T17:34:00.171Z,96355.44
2022-10-22T17:36:30.474Z,96335.66
2022-10-22T17:39:01.816Z,96346.38
2022-10-22T17:41:31.830Z,96360.75
2022-10-22T17:44:01.685Z,96365.66
2022-10-22T17:46:30.003Z,96357.41
2022-10-22T17:48:59.329Z,96364.09
2022-10-22T17:51:27.620Z,96370.38
2022-10-22T17:53:55.564Z,96369.59
2022-10-22T17:56:26.345Z,96363.19
2022-10-22T17:58:53.902Z,96363.84
2022-10-22T18:01:26.119Z,96353.13
2022-10-22T18:03:54.800Z,96353.75
2022-10-22T18:06:22.037Z,96344.38
2022-10-22T18:08:48.772Z,96344.28
2022-10-22T18:11:21.963Z,96354.41
2022-10-22T18:13:50.612Z,96356.34
2022-10-22T18:16:17.975Z,96344.81
2022-10-22T18:18:53.020Z,96356.78
2022-10-22T18:21:23.207Z,96354.75
2022-10-22T18:23:49.865Z,96337.91
2022-10-22T18:26:20.222Z,96331.69
2022-10-22T18:28:49.527Z,96329.41
2022-10-22T18:31:21.507Z,96352.66
2022-10-22T18:33:48.896Z,96358.75
2022-10-22T18:36:19.416Z,96363.16
2022-10-22T18:38:57.472Z,96350.91
2022-10-22T18:41:24.499Z,96359.00
2022-10-22T18:43:56.691Z,96350.53
2022-10-22T18:46:24.287Z,96352.72
2022-10-22T18:48:55.718Z,96351.16
2022-10-22T18:51:24.098Z,96358.00
2022-10-22T18:54:04.736Z,96363.44
2022-10-22T18:56:33.111Z,96356.19
2022-10-22T18:58:59.759Z,96361.06
2022-10-22T19:01:30.701Z,96351.66
2022-10-22T19:03:57.399Z,96346.31
2022-10-22T19:06:30.563Z,96359.22
2022-10-22T19:09:00.156Z,96349.91
2022-10-22T19:11:27.764Z,96349.13
2022-10-22T19:13:54.499Z,96377.66
2022-10-22T19:16:28.894Z,96378.28
2022-10-22T19:19:02.840Z,96374.78
2022-10-22T19:21:30.309Z,96393.56
2022-10-22T19:23:57.907Z,96396.25
2022-10-22T19:26:26.559Z,96384.06
2022-10-22T19:28:58.212Z,96381.75
2022-10-22T19:31:26.770Z,96378.09
2022-10-22T19:33:55.346Z,96377.66
2022-10-22T19:36:24.495Z,96376.47
2022-10-22T19:38:51.587Z,96372.81
2022-10-22T19:41:20.167Z,96363.53
2022-10-22T19:43:50.636Z,96353.97
2022-10-22T19:46:18.335Z,96393.00
2022-10-22T19:51:17.787Z,96409.22
2022-10-22T19:53:44.688Z,96412.19
2022-10-22T19:56:13.903Z,96401.94
2022-10-22T19:58:40.925Z,96405.97
2022-10-22T20:01:09.881Z,96407.06
2022-10-22T20:03:38.277Z,96401.53
2022-10-22T20:06:06.743Z,96400.47
2022-10-22T20:08:37.828Z,96398.06
2022-10-22T20:11:07.093Z,96408.03
2022-10-22T20:13:35.192Z,96424.16
2022-10-22T20:16:02.038Z,96423.19
2022-10-22T20:18:28.736Z,96432.44
2022-10-22T20:20:55.444Z,96443.34
2022-10-22T20:23:22.045Z,96442.34
2022-10-22T20:25:48.664Z,96459.38
2022-10-22T20:28:15.743Z,96465.41
2022-10-22T20:30:46.518Z,96466.50
2022-10-22T20:33:14.708Z,96458.25
2022-10-22T20:35:41.380Z,96478.94
2022-10-22T20:38:12.630Z,96479.19
2022-10-22T20:40:39.196Z,96466.09
2022-10-22T20:43:08.547Z,96467.13
2022-10-22T20:45:37.319Z,96466.13
2022-10-22T20:48:05.008Z,96464.81
2022-10-22T20:50:32.264Z,96467.13
2022-10-22T20:52:59.327Z,96474.03
2022-10-22T20:55:27.556Z,96494.66
2022-10-22T20:57:55.138Z,96495.09
2022-10-22T21:00:21.751Z,96501.53
2022-10-22T21:02:48.405Z,96518.13
2022-10-22T21:05:15.049Z,96522.09
2022-10-22T21:07:41.858Z,96533.91
2022-10-22T21:10:08.823Z,96540.06
2022-10-22T21:12:35.844Z,96538.31
2022-10-22T21:15:02.463Z,96536.41
2022-10-22T21:17:29.207Z,96517.91
2022-10-22T21:19:55.768Z,96516.09
2022-10-22T21:22:22.412Z,96522.56
2022-10-22T21:24:51.151Z,96525.38
2022-10-22T21:27:19.961Z,96524.31
2022-10-22T21:29:48.379Z,96529.84
2022-10-22T21:32:17.272Z,96530.59
2022-10-22T21:34:43.931Z,96521.34
2022-10-22T21:37:10.788Z,96517.97
2022-10-22T21:39:41.210Z,96517.44
2022-10-22T21:42:08.854Z,96516.00
2022-10-22T21:44:35.509Z,96532.56
2022-10-22T21:47:02.985Z,96537.28
2022-10-22T21:49:31.946Z,96539.78
2022-10-22T21:52:00.347Z,96532.47
2022-10-22T21:54:28.332Z,96537.06
2022-10-22T21:56:55.716Z,96543.38
2022-10-22T21:59:22.856Z,96544.66
2022-10-22T22:01:49.491Z,96558.84
2022-10-22T22:04:16.100Z,96560.13
2022-10-22T22:06:42.768Z,96562.88
2022-10-22T22:09:09.444Z,96566.97
2022-10-22T22:11:36.722Z,96573.75
2022-10-22T22:14:03.340Z,96580.38
2022-10-22T22:16:32.552Z,96586.59
2022-10-22T22:19:01.749Z,96601.56
2022-10-22T22:21:28.766Z,96604.56
2022-10-22T22:23:58.854Z,96602.97
2022-10-22T22:26:29.823Z,96604.44
2022-10-22T22:29:00.403Z,96612.00
2022-10-22T22:31:30.109Z,96634.59
2022-10-22T22:34:06.996Z,96649.88
2022-10-22T22:36:37.537Z,96626.47
2022-10-22T22:39:06.499Z,96613.25
2022-10-22T22:41:33.625Z,96636.69
2022-10-22T22:44:00.358Z,96628.03
2022-10-22T22:46:29.326Z,96612.94
2022-10-22T22:48:55.949Z,96602.88
2022-10-22T22:51:22.779Z,96594.41
2022-10-22T22:53:51.625Z,96580.56
2022-10-22T22:56:23.321Z,96571.59
2022-10-22T22:58:50.324Z,96555.41
2022-10-22T23:01:19.857Z,96538.38
2022-10-22T23:03:52.515Z,96531.28
2022-10-22T23:06:19.138Z,96521.97
2022-10-22T23:08:51.370Z,96519.78
2022-10-22T23:11:18.892Z,96516.00
2022-10-22T23:13:48.364Z,96512.28
2022-10-22T23:16:23.150Z,96507.88
2022-10-22T23:18:50.933Z,96483.56
2022-10-22T23:21:20.691Z,96484.38
2022-10-22T23:23:50.056Z,96490.38
2022-10-22T23:26:23.309Z,96476.00
2022-10-22T23:28:50.450Z,96481.06
2022-10-22T23:31:19.688Z,96480.13
2022-10-22T23:33:46.276Z,96474.78
2022-10-22T23:36:13.519Z,96470.97
2022-10-22T23:38:41.042Z,96479.50
2022-10-22T23:41:08.883Z,96479.19
2022-10-22T23:43:36.545Z,96462.63
2022-10-22T23:46:10.712Z,96457.94
2022-10-22T23:48:39.208Z,96453.69
2022-10-22T23:51:17.919Z,96448.47
2022-10-22T23:53:45.408Z,96453.03
2022-10-22T23:56:18.799Z,96453.94
2022-10-22T23:58:45.659Z,96460.84
